NCAR-RAP Real-Time Weather Data

Output produced by METARs form (23 April 2019  08:30 UTC)
found at http://weather.rap.ucar.edu/surface/
 
KAUS 230753Z 15005KT 10SM OVC010 21/18 A3000 RMK AO2 SLP149 T02060178